createdAt,value
2022-12-25T00:04:00.960Z,-4.00
2022-12-25T00:09:03.107Z,-4.10
2022-12-25T00:14:04.846Z,-4.10
2022-12-25T00:19:06.728Z,-4.00
2022-12-25T00:24:09.649Z,-4.10
2022-12-25T00:29:12.967Z,-3.90
2022-12-25T00:34:14.933Z,-3.80
2022-12-25T00:39:16.730Z,-3.90
2022-12-25T00:44:18.465Z,-4.00
2022-12-25T00:49:23.817Z,-4.00
2022-12-25T00:54:26.037Z,-4.00
2022-12-25T00:59:30.657Z,-4.00
2022-12-25T01:04:32.409Z,-3.90
2022-12-25T01:09:53.016Z,-4.00
2022-12-25T01:14:55.154Z,-4.10
2022-12-25T01:19:57.029Z,-4.10
2022-12-25T01:24:58.932Z,-4.10
2022-12-25T01:30:01.241Z,-4.00
2022-12-25T01:35:03.044Z,-4.20
2022-12-25T01:40:05.456Z,-3.90
2022-12-25T01:45:37.324Z,-3.70
2022-12-25T01:50:43.063Z,-3.70
2022-12-25T01:55:47.692Z,-3.80
2022-12-25T02:00:51.446Z,-3.80
2022-12-25T02:05:54.499Z,-3.90
2022-12-25T02:10:56.302Z,-4.00
2022-12-25T02:16:01.065Z,-3.80
2022-12-25T02:21:29.874Z,-3.80
2022-12-25T02:27:26.967Z,-3.80
2022-12-25T02:32:36.846Z,-4.00
2022-12-25T02:37:43.905Z,-4.10
2022-12-25T02:43:15.088Z,-4.10
2022-12-25T02:48:38.706Z,-4.20
2022-12-25T02:54:00.732Z,-4.00
2022-12-25T02:59:22.017Z,-4.00
2022-12-25T03:04:44.604Z,-4.00
2022-12-25T03:10:10.310Z,-3.80
2022-12-25T03:15:31.856Z,-3.70
2022-12-25T03:20:52.383Z,-3.80
2022-12-25T03:26:13.098Z,-3.70
2022-12-25T03:31:17.761Z,-3.80
2022-12-25T03:36:31.852Z,-4.00
2022-12-25T03:42:09.608Z,-3.80
2022-12-25T03:47:37.302Z,-3.80
2022-12-25T03:52:59.437Z,-3.80
2022-12-25T03:58:19.943Z,-3.80
2022-12-25T04:03:40.497Z,-3.80
2022-12-25T04:09:01.125Z,-3.80
2022-12-25T04:14:21.304Z,-3.90
2022-12-25T04:19:41.642Z,-3.70
2022-12-25T04:25:02.177Z,-3.80
2022-12-25T04:30:23.038Z,-3.70
2022-12-25T04:35:43.322Z,-3.70
2022-12-25T04:40:45.181Z,-3.70
2022-12-25T04:45:53.647Z,-3.80
2022-12-25T04:50:56.283Z,-3.70
2022-12-25T04:56:01.872Z,-3.80
2022-12-25T05:01:04.557Z,-4.00
2022-12-25T05:06:07.116Z,-4.10
2022-12-25T05:11:11.625Z,-4.20
2022-12-25T05:16:15.855Z,-4.30
2022-12-25T05:21:17.969Z,-4.40
2022-12-25T05:26:23.203Z,-4.40
2022-12-25T05:31:26.375Z,-4.40
2022-12-25T05:36:28.366Z,-4.50
2022-12-25T05:41:34.222Z,-4.50
2022-12-25T05:46:36.793Z,-4.60
2022-12-25T05:51:38.687Z,-4.70
2022-12-25T05:56:40.524Z,-4.70
2022-12-25T06:01:42.342Z,-4.90
2022-12-25T06:06:44.376Z,-4.90
2022-12-25T06:11:46.294Z,-5.00
2022-12-25T06:16:52.665Z,-5.00
2022-12-25T06:21:55.468Z,-5.00
2022-12-25T06:26:57.254Z,-5.00
2022-12-25T06:31:59.094Z,-5.10
2022-12-25T06:37:00.908Z,-5.20
2022-12-25T06:42:02.614Z,-5.30
2022-12-25T06:47:04.376Z,-5.40
2022-12-25T06:52:06.125Z,-5.30
2022-12-25T06:57:07.881Z,-5.40
2022-12-25T07:02:21.699Z,-5.40
2022-12-25T07:07:23.972Z,-5.50
2022-12-25T07:12:25.843Z,-5.50
2022-12-25T07:17:27.667Z,-5.50
2022-12-25T07:22:30.173Z,-5.60
2022-12-25T07:27:31.876Z,-5.60
2022-12-25T07:32:33.585Z,-5.40
2022-12-25T07:37:35.324Z,-5.30
2022-12-25T07:42:37.069Z,-5.30
2022-12-25T07:47:38.885Z,-5.20
2022-12-25T07:52:43.651Z,-4.90
2022-12-25T07:57:45.679Z,-4.60
2022-12-25T08:02:50.232Z,-4.60
2022-12-25T08:07:57.611Z,-4.50
2022-12-25T08:12:59.836Z,-4.50
2022-12-25T08:18:01.571Z,-4.50
2022-12-25T08:23:04.015Z,-4.40
2022-12-25T08:28:05.840Z,-4.60
2022-12-25T08:33:07.651Z,-4.60
2022-12-25T08:38:09.358Z,-4.60
2022-12-25T08:43:11.157Z,-4.40
2022-12-25T08:48:13.380Z,-4.60
2022-12-25T08:53:15.225Z,-4.60
2022-12-25T08:58:16.996Z,-4.50
2022-12-25T09:03:18.832Z,-4.10
2022-12-25T09:08:21.930Z,-3.70
2022-12-25T09:13:23.673Z,-3.20
2022-12-25T09:18:25.700Z,-2.90
2022-12-25T09:23:28.573Z,-1.80
2022-12-25T09:28:31.003Z,-1.00
2022-12-25T09:33:32.739Z,-0.90
2022-12-25T09:38:35.658Z,-0.50
2022-12-25T09:43:42.333Z,-0.50
2022-12-25T09:49:07.912Z,-0.10
2022-12-25T09:54:24.643Z,-0.20
2022-12-25T09:59:27.408Z,-0.40
2022-12-25T10:04:49.932Z,0.00
2022-12-25T10:09:57.449Z,0.60
2022-12-25T10:15:45.548Z,0.30
2022-12-25T10:20:57.366Z,-0.20
2022-12-25T10:25:59.097Z,-0.90
2022-12-25T10:31:15.778Z,-1.60
2022-12-25T10:36:25.377Z,-1.90
2022-12-25T10:42:07.831Z,-2.20
2022-12-25T10:47:09.554Z,-2.30
2022-12-25T10:52:23.640Z,-2.60
2022-12-25T10:57:28.091Z,-2.60
2022-12-25T11:02:41.097Z,-2.60
2022-12-25T11:07:51.229Z,-2.70
2022-12-25T11:12:53.938Z,-2.80
2022-12-25T11:17:55.717Z,-2.80
2022-12-25T11:22:57.641Z,-2.60
2022-12-25T11:28:02.019Z,-2.50
2022-12-25T11:33:12.366Z,-2.40
2022-12-25T11:38:14.103Z,-2.50
2022-12-25T11:43:25.521Z,-2.50
2022-12-25T11:48:36.962Z,-2.50
2022-12-25T11:53:50.971Z,-2.50
2022-12-25T11:58:58.298Z,-2.50
2022-12-25T12:04:01.719Z,-2.50
2022-12-25T12:09:26.940Z,-2.40
2022-12-25T12:15:04.011Z,-2.40
2022-12-25T12:20:32.176Z,-2.40
2022-12-25T12:25:38.145Z,-2.50
2022-12-25T12:30:40.048Z,-2.40
2022-12-25T12:35:42.065Z,-2.10
2022-12-25T12:41:02.269Z,-2.20
2022-12-25T12:46:06.839Z,-2.20
2022-12-25T12:51:32.803Z,-2.20
2022-12-25T12:56:34.560Z,-2.10
2022-12-25T13:01:48.119Z,-2.20
2022-12-25T13:07:04.918Z,-2.30
2022-12-25T13:12:08.419Z,-2.20
2022-12-25T13:17:10.637Z,-2.10
2022-12-25T13:22:30.813Z,-2.20
2022-12-25T13:27:33.941Z,-2.20
2022-12-25T13:32:35.896Z,-2.40
2022-12-25T13:37:38.651Z,-2.30
2022-12-25T13:42:40.505Z,-2.30
2022-12-25T13:47:48.698Z,-2.40
2022-12-25T13:52:54.870Z,-2.30
2022-12-25T13:58:02.018Z,-2.30
2022-12-25T14:03:07.566Z,-2.40
2022-12-25T14:08:19.213Z,-2.50
2022-12-25T14:13:24.852Z,-2.60
2022-12-25T14:18:27.528Z,-2.70
2022-12-25T14:23:44.419Z,-2.70
2022-12-25T14:29:09.193Z,-2.60
2022-12-25T14:34:21.370Z,-2.60
2022-12-25T14:39:33.353Z,-2.60
2022-12-25T14:44:40.823Z,-2.70
2022-12-25T14:49:42.882Z,-2.70
2022-12-25T14:54:52.263Z,-2.80
2022-12-25T15:00:05.700Z,-2.70
2022-12-25T15:05:30.683Z,-2.70
2022-12-25T15:16:16.316Z,-2.70
2022-12-25T15:21:27.215Z,-2.70
2022-12-25T15:26:31.287Z,-2.80
2022-12-25T15:31:35.677Z,-2.80
2022-12-25T15:36:37.435Z,-2.80
2022-12-25T15:41:58.401Z,-2.80
2022-12-25T15:47:00.318Z,-2.80
2022-12-25T15:52:03.705Z,-2.80
2022-12-25T15:57:07.462Z,-3.00
2022-12-25T16:02:17.010Z,-3.00
2022-12-25T16:07:25.082Z,-3.10
2022-12-25T16:12:27.145Z,-3.00
2022-12-25T16:17:29.066Z,-3.00
2022-12-25T16:22:32.076Z,-3.10
2022-12-25T16:27:33.837Z,-3.20
2022-12-25T16:32:35.581Z,-3.20
2022-12-25T16:37:37.397Z,-3.20
2022-12-25T16:42:39.315Z,-3.30
2022-12-25T16:47:41.159Z,-3.40
2022-12-25T16:52:43.099Z,-3.40
2022-12-25T16:57:47.762Z,-3.50
2022-12-25T17:02:49.681Z,-3.50
2022-12-25T17:07:51.576Z,-3.70
2022-12-25T17:12:53.322Z,-3.70
2022-12-25T17:17:55.134Z,-3.70
2022-12-25T17:22:58.072Z,-3.60
2022-12-25T17:27:59.786Z,-3.60
2022-12-25T17:33:01.507Z,-3.50
2022-12-25T17:38:03.654Z,-3.70
2022-12-25T17:43:05.358Z,-3.70
2022-12-25T17:48:07.059Z,-3.80
2022-12-25T17:53:08.832Z,-3.90
2022-12-25T17:58:10.633Z,-3.80
2022-12-25T18:03:12.702Z,-3.90
2022-12-25T18:08:15.444Z,-3.90
2022-12-25T18:13:17.195Z,-3.80
2022-12-25T18:18:18.909Z,-3.70
2022-12-25T18:23:21.879Z,-3.80
2022-12-25T18:28:23.747Z,-4.00
2022-12-25T18:33:26.165Z,-4.10
2022-12-25T18:38:28.268Z,-4.10
2022-12-25T18:43:51.305Z,-4.20
2022-12-25T18:48:52.299Z,-4.10
2022-12-25T18:53:54.866Z,-4.00
2022-12-25T18:58:59.733Z,-4.10
2022-12-25T19:04:05.694Z,-4.00
2022-12-25T19:09:10.973Z,-4.00
2022-12-25T19:14:12.736Z,-4.00
2022-12-25T19:19:15.161Z,-4.20
2022-12-25T19:24:17.099Z,-4.20
2022-12-25T19:29:18.853Z,-4.10
2022-12-25T19:34:20.738Z,-4.20
2022-12-25T19:39:22.632Z,-4.20
2022-12-25T19:44:24.417Z,-4.10
2022-12-25T19:49:26.163Z,-4.20
2022-12-25T19:54:29.476Z,-4.20
2022-12-25T19:59:31.351Z,-4.10
2022-12-25T20:04:33.236Z,-4.10
2022-12-25T20:09:35.358Z,-4.20
2022-12-25T20:14:37.149Z,-4.10
2022-12-25T20:19:38.884Z,-4.10
2022-12-25T20:24:40.847Z,-4.40
2022-12-25T20:29:42.640Z,-4.40
2022-12-25T20:34:44.641Z,-4.50
2022-12-25T20:39:46.384Z,-4.50
2022-12-25T20:44:48.364Z,-4.40
2022-12-25T20:49:50.091Z,-4.40
2022-12-25T20:54:52.043Z,-4.50
2022-12-25T20:59:54.508Z,-4.50
2022-12-25T21:04:56.269Z,-4.50
2022-12-25T21:09:59.192Z,-4.70
2022-12-25T21:15:00.943Z,-4.60
2022-12-25T21:20:02.838Z,-4.60
2022-12-25T21:25:05.120Z,-4.60
2022-12-25T21:30:14.420Z,-4.60
2022-12-25T21:35:17.660Z,-4.70
2022-12-25T21:40:19.397Z,-4.60
2022-12-25T21:45:21.306Z,-4.60
2022-12-25T21:50:41.808Z,-4.70
2022-12-25T21:55:43.639Z,-4.60
2022-12-25T22:00:45.378Z,-4.50
2022-12-25T22:06:06.005Z,-4.60
2022-12-25T22:11:27.769Z,-4.50
2022-12-25T22:16:48.160Z,-4.50
2022-12-25T22:21:49.953Z,-4.50
2022-12-25T22:26:51.864Z,-4.60
2022-12-25T22:31:53.906Z,-4.50
2022-12-25T22:36:55.667Z,-4.50
2022-12-25T22:41:58.952Z,-4.40
2022-12-25T22:47:00.805Z,-4.60
2022-12-25T22:52:02.903Z,-4.60
2022-12-25T22:57:05.289Z,-4.50
2022-12-25T23:02:07.301Z,-4.60
2022-12-25T23:07:10.868Z,-4.60
2022-12-25T23:12:32.616Z,-4.60
2022-12-25T23:17:52.711Z,-4.60
2022-12-25T23:23:13.304Z,-4.50
2022-12-25T23:28:35.477Z,-4.50
2022-12-25T23:33:37.381Z,-4.50
2022-12-25T23:38:39.083Z,-4.50
2022-12-25T23:43:40.881Z,-4.50
2022-12-25T23:48:42.888Z,-4.70
2022-12-25T23:53:44.669Z,-4.70
2022-12-25T23:58:51.556Z,-4.70
